createdAt,value
2018-09-24T00:00:51.419Z,1.00
2018-09-24T00:03:18.353Z,0.97
2018-09-24T00:05:45.235Z,0.80
2018-09-24T00:08:12.164Z,1.10
2018-09-24T00:10:39.124Z,1.40
2018-09-24T00:13:06.120Z,1.47
2018-09-24T00:15:33.067Z,1.40
2018-09-24T00:18:00.004Z,1.63
2018-09-24T00:20:26.959Z,1.70
2018-09-24T00:22:53.904Z,1.60
2018-09-24T00:25:20.791Z,1.60
2018-09-24T00:27:47.730Z,1.97
2018-09-24T00:30:14.679Z,1.73
2018-09-24T00:32:41.627Z,1.47
2018-09-24T00:35:08.533Z,1.67
2018-09-24T00:37:35.460Z,2.07
2018-09-24T00:40:02.435Z,1.67
2018-09-24T00:42:29.368Z,1.37
2018-09-24T00:44:56.328Z,1.90
2018-09-24T00:47:23.283Z,2.00
2018-09-24T00:49:50.148Z,1.93
2018-09-24T00:52:17.115Z,1.60
2018-09-24T00:54:44.048Z,1.70
2018-09-24T00:57:11.007Z,1.60
2018-09-24T00:59:37.987Z,1.60
2018-09-24T01:02:04.836Z,1.80
2018-09-24T01:04:31.775Z,1.60
2018-09-24T01:06:58.812Z,1.70
2018-09-24T01:09:25.699Z,1.60
2018-09-24T01:11:52.647Z,1.80
2018-09-24T01:14:19.615Z,1.60
2018-09-24T01:16:46.568Z,1.50
2018-09-24T01:19:13.528Z,1.83
2018-09-24T01:21:40.501Z,1.80
2018-09-24T01:24:07.354Z,2.03
2018-09-24T01:26:34.303Z,1.93
2018-09-24T01:29:01.255Z,2.27
2018-09-24T01:31:28.207Z,1.73
2018-09-24T01:33:55.060Z,2.20
2018-09-24T01:36:22.027Z,1.80
2018-09-24T01:38:48.985Z,2.27
2018-09-24T01:41:15.931Z,2.20
2018-09-24T01:43:42.791Z,2.30
2018-09-24T01:46:09.740Z,1.97
2018-09-24T01:48:36.695Z,2.30
2018-09-24T01:51:03.707Z,2.20
2018-09-24T01:53:30.620Z,2.30
2018-09-24T01:55:57.581Z,2.30
2018-09-24T01:58:24.532Z,2.27
2018-09-24T02:00:51.547Z,2.43
2018-09-24T02:03:19.473Z,2.37
2018-09-24T02:05:46.330Z,2.07
2018-09-24T02:08:13.297Z,1.90
2018-09-24T02:10:40.235Z,2.20
2018-09-24T02:13:07.194Z,2.00
2018-09-24T02:15:34.213Z,1.97
2018-09-24T02:18:01.310Z,2.10
2018-09-24T02:20:28.299Z,2.02
2018-09-24T02:22:55.238Z,3.40
2018-09-24T02:25:22.232Z,2.10
2018-09-24T02:27:49.223Z,2.30
2018-09-24T02:30:17.219Z,2.20
2018-09-24T02:32:46.183Z,2.30
2018-09-24T02:35:13.380Z,2.13
2018-09-24T02:37:40.276Z,2.00
2018-09-24T02:40:15.199Z,1.90
2018-09-24T02:42:42.171Z,2.37
2018-09-24T02:45:09.177Z,1.90
2018-09-24T02:47:36.028Z,2.33
2018-09-24T02:50:02.952Z,2.83
2018-09-24T02:52:29.889Z,4.40
2018-09-24T02:54:56.835Z,3.10
2018-09-24T02:57:23.819Z,2.77
2018-09-24T02:59:50.767Z,3.17
2018-09-24T03:02:17.628Z,3.07
2018-09-24T03:04:44.579Z,3.70
2018-09-24T03:07:11.532Z,2.33
2018-09-24T03:09:38.506Z,1.90
2018-09-24T03:12:05.396Z,2.10
2018-09-24T03:14:32.343Z,2.30
2018-09-24T03:16:59.279Z,2.13
2018-09-24T03:19:26.208Z,2.70
2018-09-24T03:21:53.068Z,4.13
2018-09-24T03:24:20.023Z,4.13
2018-09-24T03:26:46.985Z,3.93
2018-09-24T03:29:18.879Z,4.63
2018-09-24T03:31:45.878Z,4.53
2018-09-24T03:34:13.077Z,4.30
2018-09-24T03:36:40.043Z,3.50
2018-09-24T03:39:06.984Z,2.97
2018-09-24T03:41:33.972Z,2.90
2018-09-24T03:44:01.944Z,2.80
2018-09-24T03:46:28.812Z,2.40
2018-09-24T03:48:55.743Z,2.10
2018-09-24T03:51:22.699Z,2.57
2018-09-24T03:53:49.660Z,2.20
2018-09-24T03:56:16.617Z,2.37
2018-09-24T03:58:43.571Z,2.20
2018-09-24T04:01:10.532Z,2.40
2018-09-24T04:03:37.484Z,2.40
2018-09-24T04:06:11.212Z,2.80
2018-09-24T04:08:43.855Z,2.83
2018-09-24T04:11:16.591Z,3.00
2018-09-24T04:13:49.232Z,3.20
2018-09-24T04:16:21.984Z,3.20
2018-09-24T04:18:54.663Z,2.70
2018-09-24T04:21:27.541Z,3.10
2018-09-24T04:24:00.178Z,3.30
2018-09-24T04:26:32.891Z,3.33
2018-09-24T04:29:05.503Z,3.20
2018-09-24T04:31:38.097Z,3.07
2018-09-24T04:34:11.718Z,3.27
2018-09-24T04:36:44.395Z,3.23
2018-09-24T04:39:17.079Z,3.13
2018-09-24T04:41:49.831Z,4.08
2018-09-24T04:44:22.532Z,3.07
2018-09-24T04:46:55.220Z,3.40
2018-09-24T04:49:28.060Z,3.03
2018-09-24T04:52:00.955Z,3.53
2018-09-24T04:54:34.711Z,3.90
2018-09-24T04:57:07.387Z,2.43
2018-09-24T04:59:40.029Z,3.93
2018-09-24T05:02:12.581Z,3.50
2018-09-24T05:04:45.336Z,2.83
2018-09-24T05:07:18.055Z,3.57
2018-09-24T05:09:50.764Z,3.87
2018-09-24T05:12:23.384Z,3.40
2018-09-24T05:14:56.096Z,3.47
2018-09-24T05:17:29.759Z,3.33
2018-09-24T05:20:02.380Z,3.60
2018-09-24T05:22:36.119Z,3.50
2018-09-24T05:25:08.679Z,3.43
2018-09-24T05:27:41.414Z,2.83
2018-09-24T05:30:14.093Z,3.40
2018-09-24T05:32:47.760Z,3.65
2018-09-24T05:35:20.376Z,3.20
2018-09-24T05:37:53.095Z,3.17
2018-09-24T05:40:25.712Z,3.90
2018-09-24T05:42:58.616Z,3.67
2018-09-24T05:45:31.367Z,3.93
2018-09-24T05:48:04.078Z,3.40
2018-09-24T05:50:36.787Z,3.47
2018-09-24T05:53:09.344Z,3.87
2018-09-24T05:55:42.063Z,3.80
2018-09-24T05:58:14.623Z,4.67
2018-09-24T06:00:47.292Z,4.23
2018-09-24T06:03:20.027Z,3.40
2018-09-24T06:05:52.643Z,3.50
2018-09-24T06:08:25.192Z,6.37
2018-09-24T06:10:57.855Z,5.80
2018-09-24T06:13:30.633Z,4.80
2018-09-24T06:16:03.363Z,4.60
2018-09-24T06:18:36.107Z,3.70
2018-09-24T06:21:08.793Z,3.80
2018-09-24T06:23:41.440Z,3.80
2018-09-24T06:26:14.129Z,3.10
2018-09-24T06:28:46.892Z,4.00
2018-09-24T06:31:19.536Z,3.43
2018-09-24T06:33:52.219Z,3.90
2018-09-24T06:36:24.794Z,3.60
2018-09-24T06:38:57.481Z,4.22
2018-09-24T06:41:30.223Z,3.77
2018-09-24T06:44:02.919Z,2.93
2018-09-24T06:46:35.557Z,3.20
2018-09-24T06:49:08.248Z,3.13
2018-09-24T06:51:40.967Z,2.33
2018-09-24T06:54:13.656Z,2.37
2018-09-24T06:56:46.272Z,2.33
2018-09-24T06:59:18.987Z,2.47
2018-09-24T07:01:52.588Z,2.10
2018-09-24T07:04:25.122Z,2.70
2018-09-24T07:06:57.836Z,2.43
2018-09-24T07:09:30.478Z,2.50
2018-09-24T07:12:03.171Z,2.40
2018-09-24T07:14:35.656Z,1.70
2018-09-24T07:17:08.400Z,2.50
2018-09-24T07:19:41.023Z,2.03
2018-09-24T07:22:13.735Z,2.00
2018-09-24T07:24:46.407Z,1.63
2018-09-24T07:27:19.187Z,2.30
2018-09-24T07:29:51.860Z,1.93
2018-09-24T07:32:24.536Z,1.47
2018-09-24T07:34:57.165Z,1.80
2018-09-24T07:37:30.004Z,1.53
2018-09-24T07:40:02.770Z,2.00
2018-09-24T07:42:35.391Z,1.60
2018-09-24T07:45:08.051Z,1.73
2018-09-24T07:47:40.552Z,2.23
2018-09-24T07:50:13.262Z,1.70
2018-09-24T07:52:45.978Z,2.03
2018-09-24T07:55:18.763Z,1.73
2018-09-24T07:57:51.589Z,1.85
2018-09-24T08:00:24.175Z,1.43
2018-09-24T08:02:56.849Z,1.60
2018-09-24T08:05:29.512Z,1.67
2018-09-24T08:08:02.275Z,1.73
2018-09-24T08:10:34.839Z,1.50
2018-09-24T08:13:07.589Z,1.30
2018-09-24T08:15:40.248Z,1.67
2018-09-24T08:18:12.904Z,1.47
2018-09-24T08:20:45.559Z,1.60
2018-09-24T08:23:18.120Z,1.57
2018-09-24T08:25:50.770Z,1.60
2018-09-24T08:28:23.580Z,1.83
2018-09-24T08:30:56.282Z,1.50
2018-09-24T08:33:28.942Z,1.80
2018-09-24T08:36:01.653Z,1.50
2018-09-24T08:38:34.268Z,1.60
2018-09-24T08:41:07.920Z,1.70
2018-09-24T08:43:40.516Z,1.63
2018-09-24T08:46:13.170Z,1.57
2018-09-24T08:48:45.732Z,1.63
2018-09-24T08:51:18.380Z,1.50
2018-09-24T08:53:51.020Z,1.50
2018-09-24T08:56:23.640Z,1.40
2018-09-24T08:58:56.272Z,1.77
2018-09-24T09:01:28.970Z,1.60
2018-09-24T09:04:03.668Z,1.77
2018-09-24T09:06:36.344Z,1.57
2018-09-24T09:09:11.237Z,1.57
2018-09-24T09:11:43.960Z,1.87
2018-09-24T09:14:17.702Z,1.73
2018-09-24T09:16:50.346Z,1.43
2018-09-24T09:19:24.000Z,1.10
2018-09-24T09:21:56.695Z,1.37
2018-09-24T09:24:29.315Z,1.50
2018-09-24T09:27:02.054Z,1.50
2018-09-24T09:29:34.926Z,1.23
2018-09-24T09:32:07.536Z,1.63
2018-09-24T09:34:40.233Z,1.50
2018-09-24T09:37:12.948Z,1.33
2018-09-24T09:39:45.409Z,1.33
2018-09-24T09:42:18.051Z,1.90
2018-09-24T09:44:50.787Z,1.50
2018-09-24T09:47:23.407Z,1.53
2018-09-24T09:49:56.103Z,2.00
2018-09-24T09:52:28.875Z,1.50
2018-09-24T09:55:01.656Z,1.50
2018-09-24T09:57:34.371Z,1.73
2018-09-24T10:00:07.039Z,1.80
2018-09-24T10:02:39.712Z,1.52
2018-09-24T10:05:12.475Z,1.30
2018-09-24T10:07:45.174Z,1.20
2018-09-24T10:10:17.859Z,1.30
2018-09-24T10:12:50.576Z,1.90
2018-09-24T10:15:23.216Z,2.00
2018-09-24T10:17:56.207Z,1.40
2018-09-24T10:20:28.819Z,1.40
2018-09-24T10:23:01.268Z,1.37
2018-09-24T10:25:34.056Z,1.73
2018-09-24T10:28:06.774Z,1.30
2018-09-24T10:30:39.487Z,2.00
2018-09-24T10:33:12.259Z,1.00
2018-09-24T10:35:45.044Z,1.37
2018-09-24T10:38:17.737Z,1.13
2018-09-24T10:40:50.433Z,1.30
2018-09-24T10:43:24.143Z,1.57
2018-09-24T10:45:56.991Z,1.67
2018-09-24T10:48:29.579Z,1.27
2018-09-24T10:51:02.196Z,1.60
2018-09-24T10:53:34.914Z,1.20
2018-09-24T10:56:07.447Z,1.33
2018-09-24T10:58:40.144Z,1.83
2018-09-24T11:01:12.934Z,1.23
2018-09-24T11:03:45.627Z,1.47
2018-09-24T11:06:18.296Z,1.40
2018-09-24T11:08:50.958Z,1.53
2018-09-24T11:11:23.698Z,1.37
2018-09-24T11:13:56.396Z,1.53
2018-09-24T11:16:29.232Z,1.10
2018-09-24T11:19:01.640Z,1.70
2018-09-24T11:21:34.367Z,1.83
2018-09-24T11:24:07.060Z,1.23
2018-09-24T11:26:39.743Z,1.47
2018-09-24T11:29:12.514Z,1.30
2018-09-24T11:31:45.236Z,1.20
2018-09-24T11:34:19.948Z,1.30
2018-09-24T11:36:52.660Z,1.10
2018-09-24T11:39:25.379Z,1.07
2018-09-24T11:41:58.103Z,1.43
2018-09-24T11:44:30.852Z,1.10
2018-09-24T11:47:04.675Z,1.07
2018-09-24T11:49:37.345Z,0.90
2018-09-24T11:52:10.115Z,1.60
2018-09-24T11:54:42.854Z,1.40
2018-09-24T11:57:15.622Z,1.63
2018-09-24T11:59:48.160Z,1.37
2018-09-24T12:02:20.844Z,0.93
2018-09-24T12:04:53.494Z,1.67
2018-09-24T12:07:27.235Z,1.80
2018-09-24T12:09:59.947Z,1.90
2018-09-24T12:12:32.746Z,1.10
2018-09-24T12:15:05.408Z,1.30
2018-09-24T12:17:38.069Z,0.90
2018-09-24T12:20:10.779Z,1.60
2018-09-24T12:22:43.538Z,1.33
2018-09-24T12:25:16.252Z,1.27
2018-09-24T12:27:48.875Z,1.20
2018-09-24T12:30:21.557Z,1.30
2018-09-24T12:32:54.231Z,1.60
2018-09-24T12:35:27.004Z,1.17
2018-09-24T12:38:00.675Z,1.37
2018-09-24T12:40:33.474Z,1.20
2018-09-24T12:43:06.043Z,1.30
2018-09-24T12:45:38.603Z,0.90
2018-09-24T12:48:11.437Z,1.40
2018-09-24T12:50:44.111Z,1.23
2018-09-24T12:53:17.961Z,1.47
2018-09-24T12:55:50.521Z,1.13
2018-09-24T12:58:23.235Z,1.30
2018-09-24T13:00:55.955Z,1.50
2018-09-24T13:03:28.719Z,1.20
2018-09-24T13:06:01.535Z,1.20
2018-09-24T13:08:34.309Z,1.40
2018-09-24T13:11:07.950Z,1.70
2018-09-24T13:13:40.708Z,1.10
2018-09-24T13:16:13.277Z,1.30
2018-09-24T13:18:45.967Z,1.23
2018-09-24T13:21:18.715Z,0.90
2018-09-24T13:23:51.428Z,1.10
2018-09-24T13:26:24.185Z,1.20
2018-09-24T13:28:56.746Z,0.90
2018-09-24T13:31:29.296Z,1.40
2018-09-24T13:34:01.975Z,1.10
2018-09-24T13:36:34.772Z,1.77
2018-09-24T13:39:07.299Z,1.20
2018-09-24T13:41:39.935Z,1.10
2018-09-24T13:44:12.676Z,1.30
2018-09-24T13:46:45.348Z,1.17
2018-09-24T13:49:17.942Z,0.80
2018-09-24T13:51:50.507Z,1.20
2018-09-24T13:54:23.268Z,1.20
2018-09-24T13:56:56.016Z,1.17
2018-09-24T13:59:28.550Z,1.47
2018-09-24T14:02:01.148Z,1.00
2018-09-24T14:04:34.862Z,1.10
2018-09-24T14:07:07.504Z,0.93
2018-09-24T14:09:40.016Z,1.13
2018-09-24T14:12:13.688Z,1.20
2018-09-24T14:14:46.508Z,0.90
2018-09-24T14:17:19.245Z,1.27
2018-09-24T14:19:51.845Z,0.93
2018-09-24T14:22:24.399Z,1.00
2018-09-24T14:24:57.047Z,1.20
2018-09-24T14:27:29.711Z,1.27
2018-09-24T14:30:02.515Z,1.10
2018-09-24T14:32:35.234Z,1.27
2018-09-24T14:35:07.912Z,1.27
2018-09-24T14:37:40.803Z,1.10
2018-09-24T14:40:13.606Z,1.37
2018-09-24T14:42:46.127Z,1.33
2018-09-24T14:45:18.823Z,1.20
2018-09-24T14:47:52.574Z,1.30
2018-09-24T14:50:25.187Z,1.17
2018-09-24T14:52:58.095Z,1.20
2018-09-24T14:55:30.863Z,1.40
2018-09-24T14:58:03.560Z,1.80
2018-09-24T15:00:36.278Z,1.00
2018-09-24T15:03:08.830Z,1.20
2018-09-24T15:05:41.563Z,1.50
2018-09-24T15:08:15.196Z,1.20
2018-09-24T15:10:48.036Z,1.17
2018-09-24T15:13:20.656Z,1.20
2018-09-24T15:15:53.319Z,1.10
2018-09-24T15:18:26.043Z,1.37
2018-09-24T15:20:58.779Z,1.30
2018-09-24T15:23:31.499Z,1.17
2018-09-24T15:26:04.264Z,1.20
2018-09-24T15:28:37.005Z,1.30
2018-09-24T15:31:09.754Z,1.30
2018-09-24T15:33:44.565Z,1.53
2018-09-24T15:36:17.179Z,1.20
2018-09-24T15:38:49.816Z,1.20
2018-09-24T15:41:22.568Z,1.20
2018-09-24T15:43:55.278Z,1.20
2018-09-24T15:46:27.972Z,1.50
2018-09-24T15:49:00.579Z,1.33
2018-09-24T15:51:33.152Z,1.20
2018-09-24T15:54:05.795Z,1.10
2018-09-24T15:56:38.577Z,0.70
2018-09-24T15:59:12.402Z,1.27
2018-09-24T16:01:45.184Z,1.17
2018-09-24T16:04:17.940Z,0.97
2018-09-24T16:06:56.313Z,0.83
2018-09-24T16:09:28.998Z,1.53
2018-09-24T16:12:01.740Z,1.00
2018-09-24T16:14:34.528Z,1.03
2018-09-24T16:17:07.201Z,1.10
2018-09-24T16:19:39.900Z,0.93
2018-09-24T16:22:12.752Z,1.10
2018-09-24T16:24:45.587Z,1.13
2018-09-24T16:27:18.232Z,1.00
2018-09-24T16:29:51.977Z,1.33
2018-09-24T16:32:24.735Z,1.10
2018-09-24T16:34:57.352Z,1.10
2018-09-24T16:37:30.187Z,1.10
2018-09-24T16:40:02.669Z,0.93
2018-09-24T16:42:35.290Z,1.00
2018-09-24T16:45:07.972Z,1.53
2018-09-24T16:47:40.639Z,0.90
2018-09-24T16:50:13.316Z,1.20
2018-09-24T16:52:46.038Z,1.42
2018-09-24T16:55:18.735Z,1.60
2018-09-24T16:57:52.538Z,1.30
2018-09-24T17:00:25.320Z,1.20
2018-09-24T17:02:58.057Z,1.40
2018-09-24T17:05:30.660Z,1.30
2018-09-24T17:08:03.262Z,1.40
2018-09-24T17:10:35.784Z,1.10
2018-09-24T17:13:08.476Z,1.40
2018-09-24T17:15:41.301Z,1.10
2018-09-24T17:18:13.939Z,1.37
2018-09-24T17:20:46.616Z,1.53
2018-09-24T17:23:19.263Z,1.60
2018-09-24T17:25:51.927Z,1.20
2018-09-24T17:28:24.719Z,1.50
2018-09-24T17:30:57.337Z,2.10
2018-09-24T17:33:30.187Z,1.60
2018-09-24T17:36:02.848Z,1.30
2018-09-24T17:38:35.565Z,1.47
2018-09-24T17:41:08.027Z,1.30
2018-09-24T17:43:40.751Z,1.73
2018-09-24T17:46:13.669Z,1.40
2018-09-24T17:48:46.305Z,1.90
2018-09-24T17:51:19.066Z,1.27
2018-09-24T17:53:51.757Z,1.57
2018-09-24T17:56:24.726Z,1.40
2018-09-24T17:58:57.480Z,1.57
2018-09-24T18:01:30.239Z,1.37
2018-09-24T18:04:03.088Z,1.62
2018-09-24T18:06:37.847Z,1.30
2018-09-24T18:09:17.088Z,1.23
2018-09-24T18:11:49.715Z,1.70
2018-09-24T18:14:22.281Z,1.90
2018-09-24T18:16:55.189Z,1.77
2018-09-24T18:19:27.828Z,1.70
2018-09-24T18:22:00.520Z,1.60
2018-09-24T18:24:33.493Z,1.40
2018-09-24T18:27:06.352Z,1.40
2018-09-24T18:29:39.068Z,1.50
2018-09-24T18:32:11.853Z,1.40
2018-09-24T18:34:44.445Z,1.20
2018-09-24T18:37:24.387Z,1.77
2018-09-24T18:39:57.037Z,1.87
2018-09-24T18:42:29.799Z,1.60
2018-09-24T18:45:02.299Z,1.90
2018-09-24T18:47:35.138Z,1.40
2018-09-24T18:50:08.323Z,1.50
2018-09-24T18:52:41.203Z,1.60
2018-09-24T18:55:13.962Z,1.50
2018-09-24T18:57:47.677Z,1.83
2018-09-24T19:00:20.264Z,2.03
2018-09-24T19:02:53.934Z,1.53
2018-09-24T19:05:26.625Z,1.93
2018-09-24T19:07:59.460Z,1.37
2018-09-24T19:10:32.125Z,1.50
2018-09-24T19:13:06.792Z,1.77
2018-09-24T19:15:40.304Z,1.60
2018-09-24T19:18:13.004Z,1.30
2018-09-24T19:20:45.584Z,1.20
2018-09-24T19:23:18.154Z,1.30
2018-09-24T19:25:51.454Z,1.37
2018-09-24T19:28:24.689Z,1.00
2018-09-24T19:30:58.408Z,1.70
2018-09-24T19:33:31.096Z,1.53
2018-09-24T19:36:05.072Z,1.37
2018-09-24T19:38:37.855Z,1.20
2018-09-24T19:41:10.492Z,1.40
2018-09-24T19:43:43.219Z,1.23
2018-09-24T19:46:15.907Z,1.50
2018-09-24T19:48:48.640Z,1.30
2018-09-24T19:51:21.184Z,1.40
2018-09-24T19:53:53.877Z,1.50
2018-09-24T19:56:27.105Z,1.50
2018-09-24T19:58:59.813Z,1.50
2018-09-24T20:01:32.732Z,1.40
2018-09-24T20:04:06.296Z,1.60
2018-09-24T20:06:38.980Z,1.50
2018-09-24T20:09:13.033Z,1.30
2018-09-24T20:11:45.591Z,1.40
2018-09-24T20:14:18.304Z,1.50
2018-09-24T20:16:51.054Z,1.70
2018-09-24T20:19:23.635Z,1.30
2018-09-24T20:21:56.347Z,1.27
2018-09-24T20:24:29.043Z,0.90
2018-09-24T20:27:01.807Z,1.40
2018-09-24T20:29:38.399Z,1.50
2018-09-24T20:32:11.090Z,1.13
2018-09-24T20:34:43.587Z,1.30
2018-09-24T20:37:17.254Z,1.70
2018-09-24T20:39:49.872Z,1.20
2018-09-24T20:42:22.559Z,1.07
2018-09-24T20:44:55.026Z,1.60
2018-09-24T20:47:27.759Z,1.60
2018-09-24T20:50:00.331Z,1.20
2018-09-24T20:52:32.951Z,1.10
2018-09-24T20:55:05.665Z,1.10
2018-09-24T20:57:38.428Z,1.00
2018-09-24T21:00:11.363Z,1.20
2018-09-24T21:02:44.061Z,1.07
2018-09-24T21:05:16.901Z,1.10
2018-09-24T21:07:49.571Z,1.03
2018-09-24T21:10:22.312Z,1.10
2018-09-24T21:12:55.000Z,1.30
2018-09-24T21:15:27.723Z,1.47
2018-09-24T21:18:00.465Z,1.00
2018-09-24T21:20:33.100Z,1.50
2018-09-24T21:23:05.762Z,1.00
2018-09-24T21:25:38.383Z,1.07
2018-09-24T21:28:11.345Z,0.90
2018-09-24T21:30:43.912Z,1.20
2018-09-24T21:33:16.503Z,0.97
2018-09-24T21:35:49.197Z,1.10
2018-09-24T21:38:21.636Z,1.30
2018-09-24T21:40:55.307Z,1.10
2018-09-24T21:43:29.047Z,1.63
2018-09-24T21:46:01.804Z,1.20
2018-09-24T21:48:34.280Z,1.93
2018-09-24T21:51:07.020Z,1.30
2018-09-24T21:53:40.692Z,0.90
2018-09-24T21:56:13.556Z,1.00
2018-09-24T21:58:46.320Z,1.50
2018-09-24T22:01:19.051Z,1.20
2018-09-24T22:03:51.672Z,1.20
2018-09-24T22:06:24.363Z,1.30
2018-09-24T22:08:57.080Z,1.17
2018-09-24T22:11:29.819Z,1.60
2018-09-24T22:14:02.563Z,1.80
2018-09-24T22:16:35.287Z,1.43
2018-09-24T22:19:08.098Z,1.30
2018-09-24T22:21:40.691Z,1.53
2018-09-24T22:24:13.652Z,1.20
2018-09-24T22:26:46.305Z,1.40
2018-09-24T22:29:18.955Z,1.27
2018-09-24T22:31:51.477Z,1.47
2018-09-24T22:34:24.139Z,1.30
2018-09-24T22:36:56.868Z,1.30
2018-09-24T22:39:29.444Z,1.30
2018-09-24T22:42:02.088Z,1.10
2018-09-24T22:44:34.552Z,1.53
2018-09-24T22:47:07.340Z,1.57
2018-09-24T22:49:42.092Z,1.47
2018-09-24T22:52:15.731Z,1.60
2018-09-24T22:54:48.316Z,1.63
2018-09-24T22:57:22.012Z,1.30
2018-09-24T22:59:55.683Z,1.43
2018-09-24T23:02:28.447Z,1.30
2018-09-24T23:05:01.134Z,1.73
2018-09-24T23:07:33.699Z,1.63
2018-09-24T23:10:06.368Z,1.70
2018-09-24T23:12:39.115Z,1.93
2018-09-24T23:15:11.752Z,1.33
2018-09-24T23:17:44.292Z,1.30
2018-09-24T23:20:16.936Z,1.90
2018-09-24T23:22:49.580Z,1.67
2018-09-24T23:25:22.111Z,1.40
2018-09-24T23:27:54.731Z,1.63
2018-09-24T23:30:27.375Z,1.87
2018-09-24T23:33:00.139Z,1.67
2018-09-24T23:35:32.727Z,2.63
2018-09-24T23:38:05.443Z,1.43
2018-09-24T23:40:38.216Z,1.53
2018-09-24T23:43:11.181Z,1.60
2018-09-24T23:45:46.966Z,1.90
2018-09-24T23:48:19.665Z,1.80
2018-09-24T23:50:52.380Z,1.60
2018-09-24T23:53:25.075Z,1.57
2018-09-24T23:55:57.858Z,1.77
2018-09-24T23:58:32.625Z,1.53
